Time;durP1;ratioP1;P1;durP2;ratioP2;P2;SDS_P1;SDS_P2;PMS_P1;PMS_P2;Temp;Humidity;BMP_temperature;BMP_pressure;BME280_temperature;BME280_humidity;BME280_pressure;Samples;Min_cycle;Max_cycle;Signal;HPM_P1;HPM_P2
2023/10/26 00:01:00;;;;;;;12.23;11.73;;;14.60;99.90;;;;;;5034110;28;20216;-63
2023/10/26 00:03:27;;;;;;;12.10;11.70;;;14.60;99.90;;;;;;5034304;28;20236;-63
2023/10/26 00:05:54;;;;;;;11.83;11.43;;;14.60;99.90;;;;;;5034224;28;20209;-63
2023/10/26 00:08:20;;;;;;;12.23;11.83;;;14.50;99.90;;;;;;5033895;28;20247;-63
2023/10/26 00:10:47;;;;;;;12.43;12.03;;;14.50;99.90;;;;;;5033079;28;20213;-62
2023/10/26 00:13:15;;;;;;;12.63;12.23;;;14.50;99.90;;;;;;5033573;28;20225;-62
2023/10/26 00:15:42;;;;;;;12.50;12.10;;;14.50;99.90;;;;;;5033856;28;20226;-62
2023/10/26 00:18:09;;;;;;;12.20;11.80;;;14.40;99.90;;;;;;5033309;28;20212;-63
2023/10/26 00:20:36;;;;;;;12.37;11.87;;;14.40;99.90;;;;;;5033584;28;20235;-63
2023/10/26 00:23:03;;;;;;;12.57;12.17;;;14.30;99.90;;;;;;5033278;28;20235;-62
2023/10/26 00:25:29;;;;;;;11.87;11.47;;;14.30;99.90;;;;;;5033329;28;20744;-63
2023/10/26 00:27:56;;;;;;;11.93;11.53;;;14.30;99.90;;;;;;5033751;28;20231;-62
2023/10/26 00:30:24;;;;;;;12.30;11.90;;;14.20;99.90;;;;;;5033903;28;20228;-62
2023/10/26 00:32:51;;;;;;;12.70;12.20;;;14.20;99.90;;;;;;5033577;28;20603;-63
2023/10/26 00:35:18;;;;;;;12.03;11.63;;;14.20;99.90;;;;;;5033554;28;20212;-63
2023/10/26 00:37:44;;;;;;;12.47;12.07;;;14.20;99.90;;;;;;5033501;28;20220;-69
2023/10/26 00:40:12;;;;;;;12.27;11.87;;;14.20;99.90;;;;;;5033354;28;20207;-62
2023/10/26 00:42:39;;;;;;;11.87;11.47;;;14.10;99.90;;;;;;5033107;28;20229;-62
2023/10/26 00:45:06;;;;;;;12.10;11.70;;;14.20;99.90;;;;;;5033305;28;20215;-63
2023/10/26 00:47:35;;;;;;;12.03;11.63;;;14.10;99.90;;;;;;5033572;28;20209;-62
2023/10/26 00:50:03;;;;;;;12.23;11.83;;;14.20;99.90;;;;;;5035166;28;20290;-62
2023/10/26 00:52:30;;;;;;;11.73;11.33;;;14.10;99.90;;;;;;5048149;28;20235;-62
2023/10/26 00:54:58;;;;;;;12.20;11.80;;;14.20;99.90;;;;;;5048252;28;20284;-62
2023/10/26 00:57:27;;;;;;;12.33;11.93;;;14.10;99.90;;;;;;5042153;28;20578;-63
2023/10/26 00:59:54;;;;;;;12.17;11.77;;;14.10;99.90;;;;;;5032946;28;20227;-63
2023/10/26 01:02:22;;;;;;;12.27;11.87;;;14.10;99.90;;;;;;5037758;28;20270;-62
2023/10/26 01:04:51;;;;;;;11.90;11.50;;;14.00;99.90;;;;;;5034944;28;20224;-61
2023/10/26 01:07:18;;;;;;;12.17;11.77;;;14.00;99.90;;;;;;5039755;28;20275;-63
2023/10/26 01:09:45;;;;;;;12.00;11.60;;;14.00;99.90;;;;;;5035585;28;20228;-63
2023/10/26 01:12:12;;;;;;;12.03;11.63;;;14.00;99.90;;;;;;5037606;28;20228;-64
2023/10/26 01:14:39;;;;;;;11.80;11.40;;;14.00;99.90;;;;;;5039172;28;20219;-63
2023/10/26 01:17:06;;;;;;;11.90;11.50;;;14.00;99.90;;;;;;5040151;28;20204;-61
2023/10/26 01:19:40;;;;;;;12.37;11.97;;;14.00;99.90;;;;;;5033464;28;20208;-63
2023/10/26 01:22:08;;;;;;;12.40;12.00;;;13.90;99.90;;;;;;5031613;28;20213;-63
2023/10/26 01:24:35;;;;;;;12.20;11.80;;;13.90;99.90;;;;;;5032468;28;20221;-62
2023/10/26 01:27:02;;;;;;;13.17;12.77;;;13.90;99.90;;;;;;5031958;28;20216;-63
2023/10/26 01:29:29;;;;;;;12.67;12.27;;;13.80;99.90;;;;;;5031308;28;20595;-63
2023/10/26 01:31:55;;;;;;;12.30;11.90;;;13.80;99.90;;;;;;5032710;28;20219;-63
2023/10/26 01:34:22;;;;;;;12.33;11.93;;;13.80;99.90;;;;;;5032196;28;20216;-62
2023/10/26 01:36:49;;;;;;;12.70;12.30;;;13.80;99.90;;;;;;5032612;28;20213;-62
2023/10/26 01:39:18;;;;;;;12.60;12.20;;;13.80;99.90;;;;;;5033380;28;20209;-62
2023/10/26 01:41:44;;;;;;;12.43;12.03;;;13.80;99.90;;;;;;5031823;28;20751;-62
2023/10/26 01:44:11;;;;;;;12.50;12.10;;;13.80;99.90;;;;;;5031749;28;20726;-61
2023/10/26 01:46:38;;;;;;;12.93;12.53;;;13.80;99.90;;;;;;5031746;28;20208;-63
2023/10/26 01:49:05;;;;;;;12.90;12.50;;;13.70;99.90;;;;;;5031095;28;20590;-62
2023/10/26 01:51:32;;;;;;;12.63;12.23;;;13.70;99.90;;;;;;5031143;28;20212;-63
2023/10/26 01:53:59;;;;;;;12.67;12.27;;;13.70;99.90;;;;;;5031097;28;20237;-62
2023/10/26 01:56:27;;;;;;;13.20;12.80;;;13.60;99.90;;;;;;5031233;28;20212;-62
2023/10/26 01:58:54;;;;;;;14.07;13.57;;;13.50;99.90;;;;;;5031222;28;20205;-62
2023/10/26 02:01:21;;;;;;;14.10;13.60;;;13.30;99.90;;;;;;5030775;28;20697;-62
2023/10/26 02:03:48;;;;;;;14.48;13.98;;;13.20;99.90;;;;;;5030893;28;20263;-62
2023/10/26 02:06:15;;;;;;;13.73;13.23;;;13.10;99.90;;;;;;5028141;28;20212;-63
2023/10/26 02:08:42;;;;;;;13.53;13.10;;;12.90;99.90;;;;;;5031180;28;20208;-61
2023/10/26 02:11:09;;;;;;;14.10;13.60;;;12.90;99.90;;;;;;5031194;28;20212;-62
2023/10/26 02:13:38;;;;;;;15.07;14.57;;;12.80;99.90;;;;;;5031096;28;20247;-63
2023/10/26 02:16:06;;;;;;;15.27;14.77;;;12.70;99.90;;;;;;5031011;28;20224;-63
2023/10/26 02:18:32;;;;;;;15.73;15.23;;;12.60;99.90;;;;;;5030735;28;20208;-62
2023/10/26 02:21:00;;;;;;;16.92;16.33;;;12.50;99.90;;;;;;5030244;28;20212;-62
2023/10/26 02:23:27;;;;;;;17.13;16.53;;;12.50;99.90;;;;;;5030736;28;20229;-63
2023/10/26 02:25:53;;;;;;;15.50;15.00;;;12.40;99.90;;;;;;5025686;28;20663;-61
2023/10/26 02:28:20;;;;;;;16.77;16.17;;;12.30;99.90;;;;;;5030957;28;20243;-62
2023/10/26 02:30:48;;;;;;;17.73;17.13;;;12.40;99.90;;;;;;5030528;28;20232;-62
2023/10/26 02:33:15;;;;;;;17.20;16.60;;;12.30;99.90;;;;;;5035076;28;20241;-61
2023/10/26 02:35:41;;;;;;;16.93;16.33;;;12.20;99.90;;;;;;5036409;28;20651;-62
2023/10/26 02:38:08;;;;;;;16.20;15.70;;;12.10;99.90;;;;;;5035130;28;20216;-62
2023/10/26 02:40:36;;;;;;;16.10;15.60;;;12.00;99.90;;;;;;5035972;28;20220;-65
2023/10/26 02:43:03;;;;;;;14.70;14.20;;;12.00;99.90;;;;;;5036518;28;20240;-64
2023/10/26 02:45:30;;;;;;;15.23;14.73;;;12.00;99.90;;;;;;5036609;28;20208;-62
2023/10/26 02:47:58;;;;;;;15.73;15.23;;;12.00;99.90;;;;;;5036007;28;20246;-62
2023/10/26 02:50:25;;;;;;;15.83;15.33;;;12.00;99.90;;;;;;5027996;28;20235;-62
2023/10/26 02:52:52;;;;;;;15.67;15.17;;;11.90;99.90;;;;;;5031028;28;20239;-63
2023/10/26 02:55:19;;;;;;;16.17;15.60;;;11.90;99.90;;;;;;5031331;28;20223;-63
2023/10/26 02:57:45;;;;;;;15.93;15.37;;;11.90;99.90;;;;;;5027773;28;20554;-62
2023/10/26 03:00:14;;;;;;;14.50;14.00;;;11.80;99.90;;;;;;5030866;28;21580;-63
2023/10/26 03:02:41;;;;;;;15.63;15.13;;;11.90;99.90;;;;;;5027768;28;20279;-63
2023/10/26 03:05:09;;;;;;;16.27;15.73;;;11.90;99.90;;;;;;5031009;28;20212;-63
2023/10/26 03:07:36;;;;;;;15.90;15.37;;;11.90;99.90;;;;;;5035046;28;20208;-62
2023/10/26 03:10:04;;;;;;;13.07;12.67;;;11.90;99.90;;;;;;5028873;28;20235;-63
2023/10/26 03:12:31;;;;;;;15.83;15.33;;;11.90;99.90;;;;;;5030358;28;20254;-62
2023/10/26 03:14:58;;;;;;;14.80;14.30;;;11.80;99.90;;;;;;5030559;28;20588;-62
2023/10/26 03:17:25;;;;;;;13.47;12.97;;;11.80;99.90;;;;;;5030328;28;20243;-63
2023/10/26 03:19:52;;;;;;;13.90;13.43;;;11.80;99.90;;;;;;5031095;28;20208;-61
2023/10/26 03:22:20;;;;;;;14.23;13.73;;;11.80;99.90;;;;;;5030615;28;20228;-62
2023/10/26 03:24:46;;;;;;;14.20;13.70;;;11.80;99.90;;;;;;5030622;28;20211;-62
2023/10/26 03:27:13;;;;;;;15.07;14.57;;;11.80;99.90;;;;;;5030378;28;20225;-63
2023/10/26 03:29:40;;;;;;;12.70;12.30;;;11.80;99.90;;;;;;5030102;28;20235;-63
2023/10/26 03:32:07;;;;;;;13.00;12.60;;;11.80;99.90;;;;;;5025386;28;20217;-62
2023/10/26 03:34:35;;;;;;;12.43;12.03;;;11.90;99.90;;;;;;5030560;28;20219;-62
2023/10/26 03:37:01;;;;;;;14.50;13.93;;;12.00;99.90;;;;;;5030533;28;20208;-62
2023/10/26 03:39:30;;;;;;;15.43;14.93;;;12.00;99.90;;;;;;5030563;28;20229;-62
2023/10/26 03:41:56;;;;;;;14.50;14.00;;;12.00;99.90;;;;;;5029920;28;20288;-63
2023/10/26 03:44:23;;;;;;;15.00;14.50;;;11.90;99.90;;;;;;5029820;28;20220;-63
2023/10/26 03:46:52;;;;;;;15.13;14.63;;;11.90;99.90;;;;;;5030542;28;20215;-63
2023/10/26 03:49:19;;;;;;;15.43;14.93;;;12.00;99.90;;;;;;5030716;28;20220;-63
2023/10/26 03:51:45;;;;;;;15.80;15.30;;;11.90;99.90;;;;;;5031740;28;20224;-62
2023/10/26 03:54:12;;;;;;;14.40;13.90;;;11.90;99.90;;;;;;5036390;28;20228;-62
2023/10/26 03:56:40;;;;;;;14.80;14.30;;;11.90;99.90;;;;;;5036763;28;20307;-63
2023/10/26 03:59:07;;;;;;;16.43;15.87;;;11.90;99.90;;;;;;5035769;28;20208;-61
2023/10/26 04:01:34;;;;;;;15.17;14.67;;;11.90;99.90;;;;;;5035616;28;20564;-62
2023/10/26 04:04:01;;;;;;;16.83;16.23;;;11.90;99.90;;;;;;5035846;28;20235;-62
2023/10/26 04:06:29;;;;;;;15.23;14.73;;;11.90;99.90;;;;;;5034828;28;20319;-62
2023/10/26 04:08:57;;;;;;;15.83;15.23;;;11.90;99.90;;;;;;5034250;28;20209;-62
2023/10/26 04:11:24;;;;;;;14.47;13.97;;;11.90;99.90;;;;;;5033561;28;20691;-62
2023/10/26 04:13:53;;;;;;;14.63;14.13;;;11.90;99.90;;;;;;5034275;28;20308;-62
2023/10/26 04:16:20;;;;;;;15.13;14.63;;;11.90;99.90;;;;;;5034309;28;20216;-62
2023/10/26 04:18:47;;;;;;;15.20;14.70;;;12.00;99.90;;;;;;5034474;28;20212;-61
2023/10/26 04:21:14;;;;;;;15.43;14.93;;;12.00;99.90;;;;;;5034151;28;20209;-62
2023/10/26 04:23:40;;;;;;;14.50;14.00;;;12.00;99.90;;;;;;5034358;28;20236;-62
2023/10/26 04:26:08;;;;;;;15.03;14.53;;;12.10;99.90;;;;;;5034355;28;20674;-61
2023/10/26 04:28:36;;;;;;;15.10;14.60;;;12.00;99.90;;;;;;5034631;28;20217;-62
2023/10/26 04:31:05;;;;;;;15.80;15.23;;;12.00;99.90;;;;;;5034226;28;20259;-62
2023/10/26 04:33:31;;;;;;;15.70;15.20;;;12.10;99.90;;;;;;5034119;28;20233;-62
2023/10/26 04:35:59;;;;;;;15.53;15.03;;;12.10;99.90;;;;;;5038537;28;20227;-63
2023/10/26 04:38:26;;;;;;;17.07;16.47;;;12.10;99.90;;;;;;5038271;28;20213;-63
2023/10/26 04:40:53;;;;;;;18.37;17.67;;;12.10;99.90;;;;;;5035074;28;20555;-63
2023/10/26 04:43:19;;;;;;;20.80;20.10;;;12.00;99.90;;;;;;5035315;28;20236;-62
2023/10/26 04:45:47;;;;;;;23.00;22.13;;;12.00;99.90;;;;;;5038666;28;20227;-62
2023/10/26 04:48:15;;;;;;;21.33;20.63;;;12.00;99.90;;;;;;5035475;28;20243;-62
2023/10/26 04:50:42;;;;;;;21.43;20.63;;;11.90;99.90;;;;;;5035749;28;20235;-62
2023/10/26 04:53:09;;;;;;;18.23;17.53;;;11.90;99.90;;;;;;5036501;28;20240;-70
2023/10/26 04:55:36;;;;;;;17.97;17.30;;;12.00;99.90;;;;;;5035241;28;20228;-69
2023/10/26 04:58:03;;;;;;;18.70;18.10;;;12.00;99.90;;;;;;5034913;28;20204;-68
2023/10/26 05:00:30;;;;;;;18.60;18.00;;;12.00;99.90;;;;;;5034126;28;20304;-69
2023/10/26 05:02:57;;;;;;;19.43;18.73;;;12.10;99.90;;;;;;5033966;28;20248;-69
2023/10/26 05:05:25;;;;;;;17.03;16.43;;;12.10;99.90;;;;;;5031707;28;20209;-68
2023/10/26 05:07:52;;;;;;;16.90;16.30;;;12.10;99.90;;;;;;5030712;28;20219;-69
2023/10/26 05:10:19;;;;;;;20.60;19.90;;;12.10;99.90;;;;;;5030435;28;20741;-69
2023/10/26 05:12:46;;;;;;;20.53;19.83;;;12.00;99.90;;;;;;5031914;28;20233;-67
2023/10/26 05:15:13;;;;;;;18.53;17.93;;;12.00;99.90;;;;;;5033396;28;20208;-68
2023/10/26 05:17:39;;;;;;;20.40;19.70;;;12.10;99.90;;;;;;5035837;28;20247;-69
2023/10/26 05:20:08;;;;;;;19.77;19.07;;;12.10;99.90;;;;;;5035712;28;20205;-69
2023/10/26 05:22:36;;;;;;;25.87;24.97;;;12.10;99.90;;;;;;5039468;28;20228;-69
2023/10/26 05:25:04;;;;;;;22.27;21.50;;;12.10;99.90;;;;;;5039793;28;20213;-70
2023/10/26 05:27:31;;;;;;;21.23;20.50;;;12.00;99.90;;;;;;5037943;28;20228;-68
2023/10/26 05:30:00;;;;;;;20.07;19.37;;;12.00;99.90;;;;;;5032322;28;20212;-69
2023/10/26 05:32:27;;;;;;;21.50;20.80;;;11.90;99.90;;;;;;5033190;28;20225;-68
2023/10/26 05:34:54;;;;;;;25.97;25.07;;;11.90;99.90;;;;;;5033388;28;20212;-68
2023/10/26 05:37:21;;;;;;;20.40;19.70;;;11.90;99.90;;;;;;5033222;28;20208;-69
2023/10/26 05:39:49;;;;;;;22.90;22.10;;;12.00;99.90;;;;;;5036791;28;20235;-64
2023/10/26 05:42:15;;;;;;;21.80;21.00;;;12.00;99.90;;;;;;5036163;28;20598;-66
2023/10/26 05:44:42;;;;;;;21.27;20.57;;;12.00;99.90;;;;;;5037522;28;20205;-68
2023/10/26 05:47:09;;;;;;;21.47;20.77;;;11.90;99.90;;;;;;5039331;28;20217;-67
2023/10/26 05:49:36;;;;;;;23.40;22.60;;;12.00;99.90;;;;;;5037897;28;20212;-67
2023/10/26 05:52:03;;;;;;;22.70;21.90;;;12.00;99.90;;;;;;5038018;28;20259;-68
2023/10/26 05:54:30;;;;;;;23.87;23.07;;;12.00;99.90;;;;;;5039548;28;20228;-67
2023/10/26 05:56:58;;;;;;;24.33;23.43;;;12.00;99.90;;;;;;5040128;28;20201;-67
2023/10/26 05:59:25;;;;;;;25.50;24.60;;;12.10;99.90;;;;;;5034486;28;20294;-67
2023/10/26 06:01:51;;;;;;;27.53;26.53;;;12.10;99.90;;;;;;5031520;28;20213;-68
2023/10/26 06:04:19;;;;;;;30.30;29.20;;;12.10;99.90;;;;;;5032148;28;20259;-67
2023/10/26 06:06:45;;;;;;;23.47;22.67;;;12.10;99.90;;;;;;5030331;28;20632;-67
2023/10/26 06:09:12;;;;;;;25.93;25.03;;;12.10;99.90;;;;;;5030742;28;20605;-67
2023/10/26 06:11:39;;;;;;;23.33;22.53;;;12.10;99.90;;;;;;5031080;28;20232;-66
2023/10/26 06:14:08;;;;;;;29.33;28.33;;;12.20;99.90;;;;;;5031735;28;20228;-67
2023/10/26 06:16:35;;;;;;;27.00;26.07;;;12.20;99.90;;;;;;5031685;28;20348;-67
2023/10/26 06:19:02;;;;;;;31.53;30.43;;;12.20;99.90;;;;;;5031906;28;20220;-67
2023/10/26 06:21:29;;;;;;;24.30;23.47;;;12.20;99.90;;;;;;5031552;28;20584;-69
2023/10/26 06:23:56;;;;;;;27.70;26.70;;;12.20;99.90;;;;;;5031167;28;20256;-68
2023/10/26 06:26:23;;;;;;;23.57;22.67;;;12.20;99.90;;;;;;5031044;28;20699;-66
2023/10/26 06:28:49;;;;;;;23.23;22.43;;;12.20;99.90;;;;;;5030791;28;20219;-67
2023/10/26 06:31:19;;;;;;;21.47;20.67;;;12.10;99.90;;;;;;5031168;28;20604;-66
2023/10/26 06:33:45;;;;;;;22.73;21.97;;;12.10;99.90;;;;;;5030614;28;20695;-67
2023/10/26 06:36:12;;;;;;;23.23;22.40;;;12.10;99.90;;;;;;5030588;28;20224;-69
2023/10/26 06:38:39;;;;;;;21.53;20.80;;;12.00;99.90;;;;;;5030995;28;20223;-63
2023/10/26 06:41:06;;;;;;;31.90;30.77;;;12.00;99.90;;;;;;5030488;28;20243;-66
2023/10/26 06:43:33;;;;;;;22.30;21.47;;;12.00;99.90;;;;;;5030499;28;20263;-68
2023/10/26 06:46:00;;;;;;;44.63;43.03;;;12.00;99.90;;;;;;5031019;28;20212;-66
2023/10/26 06:48:28;;;;;;;23.40;22.57;;;12.10;99.90;;;;;;5030576;28;20212;-69
2023/10/26 06:50:59;;;;;;;24.40;23.50;;;12.00;99.90;;;;;;5030452;28;20578;-66
2023/10/26 06:53:26;;;;;;;29.37;28.33;;;12.00;99.90;;;;;;5030468;28;20316;-65
2023/10/26 06:55:53;;;;;;;35.73;34.47;;;12.00;99.90;;;;;;5030373;28;20204;-69
2023/10/26 06:58:19;;;;;;;27.33;26.37;;;12.10;99.90;;;;;;5027679;28;20259;-67
2023/10/26 07:00:46;;;;;;;22.37;21.53;;;12.20;99.90;;;;;;5030172;28;20243;-67
2023/10/26 07:03:13;;;;;;;28.87;27.87;;;12.20;99.90;;;;;;5030821;28;20256;-67
2023/10/26 07:05:41;;;;;;;25.23;24.37;;;12.30;99.90;;;;;;5031116;28;20216;-65
2023/10/26 07:08:08;;;;;;;24.20;23.37;;;12.30;99.90;;;;;;5030349;28;20209;-68
2023/10/26 07:10:35;;;;;;;23.43;22.57;;;12.30;99.90;;;;;;5030073;28;20229;-69
2023/10/26 07:13:02;;;;;;;25.63;24.70;;;12.30;99.90;;;;;;5030366;28;20270;-66
2023/10/26 07:15:28;;;;;;;26.40;25.50;;;12.30;99.90;;;;;;5030305;28;20228;-66
2023/10/26 07:17:56;;;;;;;27.60;26.63;;;12.40;99.90;;;;;;5030485;28;20212;-68
2023/10/26 07:20:22;;;;;;;29.17;28.07;;;12.50;99.90;;;;;;5030203;28;20217;-67
2023/10/26 07:22:52;;;;;;;26.27;25.37;;;12.50;99.90;;;;;;5030205;28;20247;-65
2023/10/26 07:25:19;;;;;;;23.13;22.33;;;12.50;99.90;;;;;;5027603;28;20244;-67
2023/10/26 07:27:45;;;;;;;24.33;23.53;;;12.50;99.90;;;;;;5031955;28;20205;-67
2023/10/26 07:30:12;;;;;;;25.60;24.70;;;12.50;99.90;;;;;;5034423;28;20223;-66
2023/10/26 07:32:39;;;;;;;26.13;25.23;;;12.60;99.90;;;;;;5033864;28;20239;-66
2023/10/26 07:35:06;;;;;;;22.33;21.53;;;12.60;99.90;;;;;;5034160;28;20583;-68
2023/10/26 07:37:33;;;;;;;24.03;23.23;;;12.60;99.90;;;;;;5033941;28;20216;-66
2023/10/26 07:40:01;;;;;;;32.03;30.93;;;12.60;99.90;;;;;;5034580;28;20303;-68
2023/10/26 07:42:28;;;;;;;28.93;27.93;;;12.60;99.90;;;;;;5034045;28;20232;-68
2023/10/26 07:44:54;;;;;;;25.73;24.83;;;12.60;99.90;;;;;;5034645;28;20204;-67
2023/10/26 07:47:22;;;;;;;24.60;23.77;;;12.60;99.90;;;;;;5034873;28;20650;-67
2023/10/26 07:49:49;;;;;;;28.67;27.67;;;12.60;99.90;;;;;;5034278;28;20607;-66
2023/10/26 07:52:16;;;;;;;35.03;33.80;;;12.60;99.90;;;;;;5034295;28;20237;-67
2023/10/26 07:54:42;;;;;;;26.27;25.37;;;12.70;99.90;;;;;;5024144;28;20550;-68
2023/10/26 07:57:10;;;;;;;27.10;26.13;;;12.70;99.90;;;;;;5033934;28;20295;-67
2023/10/26 07:59:37;;;;;;;26.83;25.90;;;12.70;99.90;;;;;;5033780;28;20239;-66
2023/10/26 08:02:04;;;;;;;35.10;33.90;;;12.80;99.90;;;;;;5033972;28;20212;-67
2023/10/26 08:04:32;;;;;;;34.00;32.83;;;12.80;99.90;;;;;;5034210;28;20208;-67
2023/10/26 08:07:00;;;;;;;29.80;28.73;;;12.80;99.90;;;;;;5033796;28;20224;-68
2023/10/26 08:09:31;;;;;;;27.33;26.43;;;12.90;99.90;;;;;;5033418;28;20266;-68
2023/10/26 08:11:58;;;;;;;31.33;30.23;;;12.90;99.90;;;;;;5033356;28;20229;-68
2023/10/26 08:14:27;;;;;;;25.40;24.53;;;13.00;99.90;;;;;;5033702;28;20208;-67
2023/10/26 08:16:54;;;;;;;26.67;25.77;;;13.00;99.90;;;;;;5033079;28;20293;-64
2023/10/26 08:19:20;;;;;;;33.47;32.27;;;12.90;99.90;;;;;;5032991;28;20216;-69
2023/10/26 08:21:47;;;;;;;33.13;31.93;;;13.00;99.90;;;;;;5033320;28;20726;-68
2023/10/26 08:24:14;;;;;;;29.40;28.40;;;12.90;99.90;;;;;;5035248;28;20242;-67
2023/10/26 08:26:40;;;;;;;31.50;30.40;;;13.00;99.90;;;;;;5033518;28;20209;-67
2023/10/26 08:29:07;;;;;;;26.90;26.00;;;13.00;99.90;;;;;;5034916;28;20205;-69
2023/10/26 08:31:39;;;;;;;31.17;30.07;;;13.10;99.90;;;;;;5033198;28;20232;-67
2023/10/26 08:34:06;;;;;;;33.20;32.03;;;13.10;99.90;;;;;;5032983;28;20715;-69
2023/10/26 08:36:33;;;;;;;28.53;27.53;;;13.10;99.90;;;;;;5033266;28;20209;-68
2023/10/26 08:39:00;;;;;;;25.60;24.70;;;13.20;99.90;;;;;;5033003;28;20212;-68
2023/10/26 08:41:31;;;;;;;29.10;28.10;;;13.20;99.90;;;;;;5040197;28;20263;-68
2023/10/26 08:43:59;;;;;;;28.97;27.97;;;13.20;99.90;;;;;;5033155;28;20228;-67
2023/10/26 08:46:28;;;;;;;30.40;29.37;;;13.10;99.90;;;;;;5032911;28;20675;-68
2023/10/26 08:48:58;;;;;;;28.57;27.57;;;13.20;99.90;;;;;;5033997;28;20239;-66
2023/10/26 08:51:27;;;;;;;30.73;29.70;;;13.20;99.90;;;;;;5036601;28;20278;-68
2023/10/26 08:53:54;;;;;;;28.10;27.10;;;13.30;99.90;;;;;;5034528;28;20400;-64
2023/10/26 08:56:24;;;;;;;34.53;33.33;;;13.30;99.90;;;;;;5034260;28;20610;-66
2023/10/26 08:58:57;;;;;;;35.23;33.97;;;13.30;99.90;;;;;;5034164;28;20219;-67
2023/10/26 09:01:23;;;;;;;28.90;27.90;;;13.30;99.90;;;;;;5031709;28;20266;-67
2023/10/26 09:03:50;;;;;;;26.97;26.07;;;13.40;99.90;;;;;;5034472;28;20229;-65
2023/10/26 09:06:18;;;;;;;30.93;29.83;;;13.40;99.90;;;;;;5034805;28;20213;-67
2023/10/26 09:08:59;;;;;;;27.37;26.47;;;13.40;99.90;;;;;;5034447;28;20220;-66
2023/10/26 09:11:26;;;;;;;30.30;29.27;;;13.50;99.90;;;;;;5032064;28;20232;-66
2023/10/26 09:13:53;;;;;;;37.57;36.27;;;13.50;99.90;;;;;;5035056;28;20235;-66
2023/10/26 09:16:34;;;;;;;34.37;33.17;;;13.50;99.90;;;;;;5033827;28;20270;-69
2023/10/26 09:19:01;;;;;;;28.77;27.80;;;13.60;99.90;;;;;;5034584;28;20217;-66
2023/10/26 09:21:29;;;;;;;40.43;39.03;;;13.60;99.90;;;;;;5034691;28;20220;-66
2023/10/26 09:23:56;;;;;;;29.97;28.97;;;13.70;99.90;;;;;;5035453;28;20240;-68
2023/10/26 09:26:23;;;;;;;24.60;23.80;;;13.80;99.90;;;;;;5035594;28;20219;-67
2023/10/26 09:28:51;;;;;;;26.63;25.73;;;13.80;99.90;;;;;;5034238;28;20204;-66
2023/10/26 09:31:18;;;;;;;28.43;27.43;;;13.90;99.90;;;;;;5031576;28;20209;-67
2023/10/26 09:33:45;;;;;;;28.10;27.13;;;13.90;99.90;;;;;;5032311;28;20224;-66
2023/10/26 09:36:13;;;;;;;28.53;27.53;;;13.90;99.90;;;;;;5033027;28;20213;-67
2023/10/26 09:38:41;;;;;;;24.53;23.73;;;13.90;99.90;;;;;;5033955;28;20209;-64
2023/10/26 09:41:11;;;;;;;38.40;37.07;;;13.90;99.90;;;;;;5033858;28;20291;-66
2023/10/26 09:43:40;;;;;;;32.37;31.23;;;13.90;99.90;;;;;;5033572;28;20232;-67
2023/10/26 09:46:07;;;;;;;44.17;42.63;;;13.90;99.90;;;;;;5032694;28;20208;-67
2023/10/26 09:48:34;;;;;;;34.57;33.37;;;13.90;99.90;;;;;;5040637;28;20200;-67
2023/10/26 09:51:01;;;;;;;25.50;24.60;;;13.90;99.90;;;;;;5044700;28;20213;-68
2023/10/26 09:53:32;;;;;;;29.80;28.77;;;14.00;99.90;;;;;;5045553;28;20259;-67
2023/10/26 09:56:02;;;;;;;31.80;30.70;;;14.10;99.90;;;;;;5038848;28;20291;-66
2023/10/26 09:58:32;;;;;;;35.87;34.63;;;14.10;99.90;;;;;;5042208;28;20218;-69
2023/10/26 10:01:00;;;;;;;34.20;33.00;;;14.10;99.90;;;;;;5047429;28;20214;-66
2023/10/26 10:03:29;;;;;;;34.23;33.03;;;14.20;99.90;;;;;;5046943;28;20229;-68
2023/10/26 10:05:55;;;;;;;72.93;70.40;;;14.30;99.90;;;;;;5042900;28;20639;-67
2023/10/26 10:09:00;;;;;;;36.47;35.17;;;14.30;99.90;;;;;;5040995;28;20208;-68
2023/10/26 10:11:28;;;;;;;38.03;36.70;;;14.30;99.90;;;;;;5026927;28;20220;-69
2023/10/26 10:13:55;;;;;;;37.47;36.17;;;14.40;99.90;;;;;;5032214;28;20236;-68
2023/10/26 10:16:50;;;;;;;73.67;70.97;;;14.50;99.90;;;;;;5032158;28;20540;-66
2023/10/26 10:19:17;;;;;;;73.67;71.20;;;14.60;99.90;;;;;;5031632;28;20205;-68
2023/10/26 10:21:44;;;;;;;24.57;23.73;;;14.80;99.90;;;;;;5026506;28;20319;-68
2023/10/26 10:24:11;;;;;;;31.30;30.20;;;14.90;99.90;;;;;;5031149;28;20605;-68
2023/10/26 10:27:09;;;;;;;65.03;62.73;;;15.10;99.90;;;;;;5031704;28;20220;-67
2023/10/26 10:29:35;;;;;;;40.57;39.13;;;15.20;99.90;;;;;;5030545;28;20763;-67
2023/10/26 10:32:02;;;;;;;23.57;22.77;;;15.30;99.90;;;;;;5031927;28;20227;-67
2023/10/26 10:34:33;;;;;;;26.23;25.33;;;15.50;99.90;;;;;;5031128;28;20295;-69
2023/10/26 10:37:10;;;;;;;26.07;25.17;;;15.60;99.90;;;;;;5031460;28;20296;-67
2023/10/26 10:39:37;;;;;;;27.80;26.80;;;15.60;99.90;;;;;;5031329;28;20208;-67
2023/10/26 10:42:09;;;;;;;18.40;17.80;;;15.70;99.90;;;;;;5031279;28;20216;-65
2023/10/26 10:44:37;;;;;;;49.60;47.87;;;15.80;99.90;;;;;;5031384;28;20208;-68
2023/10/26 10:47:04;;;;;;;19.87;19.17;;;16.00;99.90;;;;;;5030908;28;20259;-68
2023/10/26 10:49:30;;;;;;;29.70;28.67;;;16.10;99.90;;;;;;5031116;28;20200;-69
2023/10/26 10:51:58;;;;;;;23.77;22.93;;;16.30;99.90;;;;;;5031070;28;20598;-67
2023/10/26 10:54:25;;;;;;;34.13;32.83;;;16.30;99.90;;;;;;5031029;28;20220;-67
2023/10/26 10:56:52;;;;;;;33.23;32.03;;;16.40;99.90;;;;;;5030974;28;20213;-68
2023/10/26 10:59:22;;;;;;;47.37;45.63;;;16.40;99.90;;;;;;5030399;28;20217;-68
2023/10/26 11:01:50;;;;;;;22.17;21.37;;;16.50;99.90;;;;;;5029537;28;20599;-66
2023/10/26 11:04:17;;;;;;;27.73;26.73;;;16.50;99.90;;;;;;5030391;28;20248;-68
2023/10/26 11:06:49;;;;;;;34.03;32.83;;;16.60;99.90;;;;;;5026275;28;20212;-69
2023/10/26 11:09:27;;;;;;;24.93;24.03;;;16.60;99.90;;;;;;5030858;28;20270;-69
2023/10/26 11:11:54;;;;;;;27.40;26.43;;;16.70;99.90;;;;;;5027356;28;20435;-69
2023/10/26 11:14:23;;;;;;;28.87;27.87;;;16.90;99.90;;;;;;5028070;28;20729;-67
2023/10/26 11:16:51;;;;;;;26.73;25.80;;;17.00;99.90;;;;;;5030570;28;20628;-67
2023/10/26 11:19:17;;;;;;;25.53;24.67;;;17.00;99.90;;;;;;5030403;28;20220;-65
2023/10/26 11:21:44;;;;;;;28.93;27.93;;;17.10;99.90;;;;;;5031410;28;20212;-69
2023/10/26 11:24:11;;;;;;;22.63;21.83;;;17.10;99.90;;;;;;5033212;28;20232;-66
2023/10/26 11:26:38;;;;;;;19.37;18.67;;;17.20;99.90;;;;;;5036194;28;20213;-70
2023/10/26 11:29:05;;;;;;;19.20;18.50;;;17.30;99.90;;;;;;5036185;28;20300;-68
2023/10/26 11:31:39;;;;;;;18.57;17.87;;;17.40;99.90;;;;;;5036183;28;20659;-68
2023/10/26 11:34:07;;;;;;;16.10;15.50;;;17.50;99.90;;;;;;5033907;28;20247;-68
2023/10/26 11:36:35;;;;;;;14.90;14.40;;;17.60;99.90;;;;;;5032523;28;20204;-68
2023/10/26 11:39:02;;;;;;;14.93;14.40;;;17.70;99.90;;;;;;5032957;28;20220;-68
2023/10/26 11:41:29;;;;;;;16.10;15.50;;;17.80;99.90;;;;;;5031487;28;20212;-70
2023/10/26 11:43:56;;;;;;;15.03;14.53;;;17.80;99.90;;;;;;5030569;28;20562;-69
2023/10/26 11:46:30;;;;;;;15.33;14.73;;;17.70;99.90;;;;;;5031352;28;20208;-69
2023/10/26 11:48:58;;;;;;;15.83;15.23;;;17.80;99.90;;;;;;5030565;28;20212;-69
2023/10/26 11:51:25;;;;;;;15.40;14.80;;;17.70;99.90;;;;;;5030468;28;20209;-67
2023/10/26 11:53:51;;;;;;;16.83;16.23;;;17.80;99.90;;;;;;5030381;28;20751;-69
2023/10/26 11:56:18;;;;;;;16.33;15.73;;;17.70;99.90;;;;;;5030582;28;20224;-70
2023/10/26 11:58:45;;;;;;;16.37;15.77;;;17.70;99.90;;;;;;5030678;28;20216;-68
2023/10/26 12:01:12;;;;;;;16.47;15.87;;;17.70;99.90;;;;;;5031117;28;20228;-67
2023/10/26 12:03:44;;;;;;;15.87;15.27;;;17.70;99.90;;;;;;5031756;28;20236;-69
2023/10/26 12:06:13;;;;;;;15.93;15.33;;;17.80;99.90;;;;;;5031265;28;20212;-68
2023/10/26 12:08:39;;;;;;;16.17;15.57;;;17.80;99.90;;;;;;5030970;28;20290;-67
2023/10/26 12:11:06;;;;;;;15.97;15.37;;;17.70;99.90;;;;;;5030868;28;20587;-68
2023/10/26 12:13:34;;;;;;;16.00;15.40;;;17.70;99.90;;;;;;5031515;28;20239;-70
2023/10/26 12:16:01;;;;;;;15.70;15.13;;;17.70;99.90;;;;;;5033944;28;20216;-70
2023/10/26 12:18:28;;;;;;;15.53;14.93;;;17.60;99.90;;;;;;5035346;28;20216;-69
2023/10/26 12:20:54;;;;;;;16.00;15.40;;;17.60;99.90;;;;;;5035172;28;20212;-69
2023/10/26 12:23:22;;;;;;;15.43;14.83;;;17.60;99.90;;;;;;5031947;28;20294;-69
2023/10/26 12:25:49;;;;;;;15.77;15.17;;;17.50;99.90;;;;;;5033859;28;20229;-68
2023/10/26 12:28:17;;;;;;;15.70;15.20;;;17.50;99.90;;;;;;5033998;28;20209;-70
2023/10/26 12:30:45;;;;;;;15.23;14.63;;;17.40;99.90;;;;;;5029173;28;20219;-68